Terminal Aerodrome Forecast
Issued by NWS Medford, OR

Home | Current Version | Previous Version | Text Only | Print | Product List | Glossary On
Versions: 1 2 3 4 5 6 7 8 9 10 11 12 13
827
FTUS46 KMFR 200520
TAFMFR
TAF
KMFR 200520Z 2006/2106 VRB03KT P6SM -SHRA SCT025 OVC040
     FM202100 30010KT P6SM -SHRA SCT025 OVC050
     FM210200 VRB03KT P6SM OVC050=

USA.gov is the U.S. government's official web portal to all federal, state and local government web resources and services.